createdAt,value
2018-09-05T00:02:06.586Z,49.10
2018-09-05T00:04:35.491Z,48.90
2018-09-05T00:07:03.754Z,49.20
2018-09-05T00:09:32.022Z,49.50
2018-09-05T00:12:00.264Z,49.50
2018-09-05T00:14:28.523Z,49.70
2018-09-05T00:16:56.978Z,49.70
2018-09-05T00:19:25.338Z,50.00
2018-09-05T00:21:53.578Z,49.70
2018-09-05T00:24:21.792Z,49.60
2018-09-05T00:26:51.096Z,49.90
2018-09-05T00:29:19.397Z,49.90
2018-09-05T00:31:47.728Z,49.90
2018-09-05T00:34:16.050Z,49.50
2018-09-05T00:36:44.307Z,49.40
2018-09-05T00:39:12.597Z,48.90
2018-09-05T00:41:41.034Z,49.50
2018-09-05T00:44:09.287Z,50.40
2018-09-05T00:46:37.519Z,50.40
2018-09-05T00:49:05.778Z,50.20
2018-09-05T00:51:34.292Z,50.40
2018-09-05T00:54:02.592Z,50.50
2018-09-05T00:56:30.989Z,50.70
2018-09-05T00:58:59.506Z,50.60
2018-09-05T01:01:28.544Z,50.80
2018-09-05T01:03:56.908Z,51.20
2018-09-05T01:06:25.990Z,51.10
2018-09-05T01:08:54.412Z,51.00
2018-09-05T01:11:22.636Z,51.00
2018-09-05T01:13:50.858Z,51.00
2018-09-05T01:16:19.388Z,50.80
2018-09-05T01:18:48.188Z,50.60
2018-09-05T01:21:20.862Z,50.90
2018-09-05T01:23:49.294Z,50.80
2018-09-05T01:26:17.884Z,50.60
2018-09-05T01:28:46.162Z,50.50
2018-09-05T01:31:15.093Z,50.20
2018-09-05T01:33:44.341Z,50.40
2018-09-05T01:36:15.257Z,50.80
2018-09-05T01:38:44.309Z,51.00
2018-09-05T01:41:14.098Z,50.70
2018-09-05T01:43:43.309Z,50.70
2018-09-05T01:46:11.838Z,50.70
2018-09-05T01:48:40.703Z,51.20
2018-09-05T01:51:09.655Z,51.30
2018-09-05T01:53:37.931Z,51.30
2018-09-05T01:56:06.716Z,51.50
2018-09-05T01:58:35.181Z,51.70
2018-09-05T02:01:03.479Z,51.50
2018-09-05T02:03:31.897Z,52.00
2018-09-05T02:06:00.170Z,51.80
2018-09-05T02:08:28.501Z,51.80
2018-09-05T02:10:57.319Z,52.00
2018-09-05T02:13:25.765Z,52.40
2018-09-05T02:15:54.086Z,52.20
2018-09-05T02:18:22.389Z,52.20
2018-09-05T02:20:50.638Z,52.20
2018-09-05T02:23:19.047Z,52.40
2018-09-05T02:25:47.353Z,52.60
2018-09-05T02:28:15.625Z,52.30
2018-09-05T02:30:43.842Z,52.40
2018-09-05T02:33:12.258Z,52.20
2018-09-05T02:35:40.750Z,51.90
2018-09-05T02:38:08.974Z,51.50
2018-09-05T02:40:37.601Z,51.40
2018-09-05T02:43:05.976Z,51.00
2018-09-05T02:45:34.615Z,50.30
2018-09-05T02:48:02.858Z,49.90
2018-09-05T02:50:31.162Z,50.10
2018-09-05T02:52:59.450Z,50.70
2018-09-05T02:55:33.553Z,50.70
2018-09-05T02:58:01.785Z,51.00
2018-09-05T03:00:30.181Z,51.40
2018-09-05T03:02:58.535Z,52.00
2018-09-05T03:05:26.880Z,51.70
2018-09-05T03:07:55.076Z,51.40
2018-09-05T03:10:23.369Z,52.70
2018-09-05T03:12:51.994Z,52.40
2018-09-05T03:15:20.453Z,51.70
2018-09-05T03:17:48.915Z,51.80
2018-09-05T03:20:17.110Z,51.90
2018-09-05T03:22:45.329Z,52.00
2018-09-05T03:25:13.566Z,51.70
2018-09-05T03:27:42.125Z,51.60
2018-09-05T03:30:11.442Z,51.70
2018-09-05T03:32:39.721Z,51.10
2018-09-05T03:35:07.892Z,50.60
2018-09-05T03:37:36.446Z,51.00
2018-09-05T03:40:05.085Z,50.80
2018-09-05T03:42:33.543Z,51.30
2018-09-05T03:45:01.777Z,50.90
2018-09-05T03:47:30.203Z,50.10
2018-09-05T03:49:58.462Z,49.20
2018-09-05T03:52:26.971Z,49.20
2018-09-05T03:54:55.446Z,49.40
2018-09-05T03:57:23.790Z,50.00
2018-09-05T03:59:52.250Z,50.30
2018-09-05T04:02:20.676Z,50.50
2018-09-05T04:04:48.870Z,50.80
2018-09-05T04:07:17.067Z,50.80
2018-09-05T04:09:45.266Z,51.10
2018-09-05T04:12:13.548Z,50.70
2018-09-05T04:14:41.911Z,50.60
2018-09-05T04:17:10.206Z,51.10
2018-09-05T04:19:38.394Z,50.80
2018-09-05T04:22:06.633Z,50.90
2018-09-05T04:24:34.762Z,50.80
2018-09-05T04:27:04.565Z,50.80
2018-09-05T04:29:33.025Z,51.00
2018-09-05T04:32:01.162Z,51.00
2018-09-05T04:34:29.374Z,51.00
2018-09-05T04:36:57.813Z,50.60
2018-09-05T04:39:26.869Z,51.00
2018-09-05T04:41:55.099Z,50.80
2018-09-05T04:44:23.317Z,50.50
2018-09-05T04:46:51.528Z,50.70
2018-09-05T04:49:19.946Z,50.60
2018-09-05T04:51:48.327Z,50.70
2018-09-05T04:54:16.578Z,50.60
2018-09-05T04:56:44.739Z,50.30
2018-09-05T04:59:13.065Z,50.00
2018-09-05T05:01:41.284Z,50.10
2018-09-05T05:04:09.483Z,50.10
2018-09-05T05:06:37.724Z,50.00
2018-09-05T05:09:08.956Z,50.30
2018-09-05T05:11:37.275Z,50.20
2018-09-05T05:14:06.575Z,50.90
2018-09-05T05:16:34.975Z,51.30
2018-09-05T05:19:03.271Z,51.30
2018-09-05T05:21:31.465Z,51.00
2018-09-05T05:23:59.751Z,51.60
2018-09-05T05:26:28.062Z,51.10
2018-09-05T05:28:56.279Z,51.40
2018-09-05T05:31:24.561Z,51.60
2018-09-05T05:33:52.808Z,51.20
2018-09-05T05:36:21.039Z,51.20
2018-09-05T05:38:49.422Z,51.30
2018-09-05T05:41:17.604Z,51.30
2018-09-05T05:43:46.206Z,51.40
2018-09-05T05:46:14.395Z,51.50
2018-09-05T05:48:42.726Z,51.30
2018-09-05T05:51:11.166Z,51.20
2018-09-05T05:53:40.004Z,50.90
2018-09-05T05:56:08.220Z,50.80
2018-09-05T05:58:36.406Z,50.60
2018-09-05T06:01:05.322Z,50.70
2018-09-05T06:03:33.739Z,50.80
2018-09-05T06:06:02.032Z,51.00
2018-09-05T06:08:30.179Z,50.40
2018-09-05T06:10:58.377Z,50.60
2018-09-05T06:13:27.642Z,50.40
2018-09-05T06:15:56.126Z,50.30
2018-09-05T06:18:24.369Z,49.70
2018-09-05T06:20:52.606Z,49.30
2018-09-05T06:23:20.822Z,49.10
2018-09-05T06:25:49.794Z,48.90
2018-09-05T06:28:18.189Z,49.00
2018-09-05T06:30:46.536Z,49.60
2018-09-05T06:33:14.563Z,48.60
2018-09-05T06:35:43.062Z,48.40
2018-09-05T06:38:11.344Z,48.10
2018-09-05T06:40:39.539Z,48.60
2018-09-05T06:43:07.812Z,47.90
2018-09-05T06:45:36.052Z,48.40
2018-09-05T06:48:04.918Z,48.30
2018-09-05T06:50:34.637Z,48.10
2018-09-05T06:53:03.095Z,48.00
2018-09-05T06:55:31.337Z,48.30
2018-09-05T06:57:59.801Z,47.70
2018-09-05T07:00:28.148Z,47.70
2018-09-05T07:02:56.424Z,48.00
2018-09-05T07:05:24.636Z,47.50
2018-09-05T07:07:52.850Z,47.30
2018-09-05T07:10:21.064Z,47.40
2018-09-05T07:12:50.055Z,47.40
2018-09-05T07:15:18.630Z,47.20
2018-09-05T07:17:46.829Z,47.00
2018-09-05T07:20:15.073Z,46.50
2018-09-05T07:22:43.299Z,46.30
2018-09-05T07:25:12.787Z,46.10
2018-09-05T07:27:41.321Z,45.80
2018-09-05T07:30:09.554Z,45.90
2018-09-05T07:32:37.818Z,45.90
2018-09-05T07:35:06.121Z,46.20
2018-09-05T07:37:34.558Z,47.30
2018-09-05T07:40:02.812Z,46.40
2018-09-05T07:42:31.106Z,46.00
2018-09-05T07:44:59.290Z,46.00
2018-09-05T07:47:27.648Z,46.20
2018-09-05T07:49:55.962Z,46.00
2018-09-05T07:52:24.268Z,46.00
2018-09-05T07:54:52.446Z,45.40
2018-09-05T07:57:20.633Z,45.10
2018-09-05T07:59:48.847Z,44.60
2018-09-05T08:02:17.137Z,44.60
2018-09-05T08:04:45.406Z,44.70
2018-09-05T08:07:13.693Z,45.50
2018-09-05T08:09:42.184Z,44.50
2018-09-05T08:12:10.494Z,43.70
2018-09-05T08:14:39.545Z,43.30
2018-09-05T08:17:07.755Z,42.60
2018-09-05T08:19:35.972Z,42.40
2018-09-05T08:22:04.376Z,41.90
2018-09-05T08:24:32.722Z,41.60
2018-09-05T08:27:01.141Z,41.00
2018-09-05T08:29:29.416Z,40.00
2018-09-05T08:31:58.519Z,38.90
2018-09-05T08:34:26.756Z,37.30
2018-09-05T08:36:55.110Z,35.20
2018-09-05T08:39:23.207Z,33.50
2018-09-05T08:41:51.453Z,31.50
2018-09-05T08:44:20.395Z,29.20
2018-09-05T08:46:48.836Z,28.20
2018-09-05T08:49:16.996Z,27.30
2018-09-05T08:51:45.221Z,27.80
2018-09-05T08:54:13.447Z,27.50
2018-09-05T08:56:41.785Z,28.00
2018-09-05T08:59:10.114Z,26.80
2018-09-05T09:01:38.770Z,26.60
2018-09-05T09:04:07.072Z,26.40
2018-09-05T09:06:35.361Z,26.10
2018-09-05T09:09:04.685Z,25.00
2018-09-05T09:11:33.063Z,23.90
2018-09-05T09:14:01.393Z,22.60
2018-09-05T09:16:30.057Z,22.40
2018-09-05T09:18:58.907Z,21.90
2018-09-05T09:21:27.371Z,22.10
2018-09-05T09:23:56.536Z,22.20
2018-09-05T09:26:24.815Z,21.20
2018-09-05T09:28:53.017Z,21.30
2018-09-05T09:31:21.303Z,21.20
2018-09-05T09:33:49.681Z,21.20
2018-09-05T09:36:17.909Z,20.50
2018-09-05T09:38:46.106Z,20.00
2018-09-05T09:41:14.675Z,19.70
2018-09-05T09:43:43.081Z,19.50
2018-09-05T09:46:11.340Z,19.00
2018-09-05T09:48:39.790Z,19.10
2018-09-05T09:51:08.042Z,19.10
2018-09-05T09:53:36.411Z,19.00
2018-09-05T09:56:04.827Z,18.70
2018-09-05T09:58:33.076Z,18.40
2018-09-05T10:01:06.792Z,18.40
2018-09-05T10:03:40.991Z,17.10
2018-09-05T10:06:14.477Z,17.30
2018-09-05T10:08:48.320Z,17.30
2018-09-05T10:11:17.953Z,17.00
2018-09-05T10:13:51.745Z,16.90
2018-09-05T10:16:25.512Z,17.40
2018-09-05T10:18:54.309Z,17.70
2018-09-05T10:21:22.947Z,17.50
2018-09-05T10:23:51.179Z,17.80
2018-09-05T10:26:19.454Z,17.00
2018-09-05T10:28:47.669Z,17.20
2018-09-05T10:31:15.930Z,17.10
2018-09-05T10:33:44.183Z,17.00
2018-09-05T10:36:12.419Z,16.30
2018-09-05T10:38:40.704Z,16.70
2018-09-05T10:41:08.950Z,16.70
2018-09-05T10:43:37.205Z,16.40
2018-09-05T10:46:05.518Z,16.40
2018-09-05T10:48:33.843Z,16.30
2018-09-05T10:51:02.107Z,16.30
2018-09-05T10:53:30.388Z,16.20
2018-09-05T10:55:58.618Z,15.80
2018-09-05T10:58:26.889Z,15.70
2018-09-05T11:00:55.101Z,15.80
2018-09-05T11:03:23.303Z,16.00
2018-09-05T11:05:51.551Z,15.70
2018-09-05T11:08:20.719Z,15.80
2018-09-05T11:10:49.005Z,15.90
2018-09-05T11:13:17.181Z,15.50
2018-09-05T11:15:45.383Z,15.80
2018-09-05T11:18:13.596Z,15.70
2018-09-05T11:20:41.894Z,15.00
2018-09-05T11:23:16.607Z,15.00
2018-09-05T11:25:45.841Z,15.40
2018-09-05T11:28:14.058Z,15.40
2018-09-05T11:30:42.357Z,15.70
2018-09-05T11:33:10.565Z,15.10
2018-09-05T11:35:38.994Z,15.40
2018-09-05T11:38:07.189Z,15.40
2018-09-05T11:40:35.561Z,15.60
2018-09-05T11:43:04.646Z,15.20
2018-09-05T11:45:32.846Z,15.70
2018-09-05T11:48:01.118Z,15.40
2018-09-05T11:50:29.318Z,15.50
2018-09-05T11:52:58.808Z,15.20
2018-09-05T11:55:27.200Z,15.00
2018-09-05T11:57:55.429Z,14.60
2018-09-05T12:00:23.653Z,14.90
2018-09-05T12:02:51.857Z,14.70
2018-09-05T12:05:21.102Z,15.10
2018-09-05T12:07:49.341Z,15.30
2018-09-05T12:10:17.557Z,14.70
2018-09-05T12:12:45.763Z,15.10
2018-09-05T12:15:14.001Z,14.10
2018-09-05T12:17:42.258Z,14.00
2018-09-05T12:20:10.778Z,14.30
2018-09-05T12:22:38.959Z,14.20
2018-09-05T12:25:07.193Z,14.80
2018-09-05T12:27:35.518Z,16.10
2018-09-05T12:30:03.818Z,16.40
2018-09-05T12:32:32.046Z,16.50
2018-09-05T12:35:00.291Z,16.90
2018-09-05T12:37:28.562Z,17.40
2018-09-05T12:39:56.960Z,18.30
2018-09-05T12:42:25.170Z,19.30
2018-09-05T12:44:53.419Z,20.10
2018-09-05T12:47:21.721Z,21.20
2018-09-05T12:49:50.038Z,21.80
2018-09-05T12:52:18.267Z,23.30
2018-09-05T12:54:46.563Z,23.00
2018-09-05T12:57:14.825Z,23.80
2018-09-05T12:59:43.152Z,23.60
2018-09-05T13:02:11.412Z,25.20
2018-09-05T13:04:39.697Z,24.60
2018-09-05T13:07:07.973Z,25.40
2018-09-05T13:09:36.174Z,26.40
2018-09-05T13:12:04.614Z,26.70
2018-09-05T13:14:32.817Z,27.40
2018-09-05T13:17:01.067Z,27.30
2018-09-05T13:19:29.355Z,27.70
2018-09-05T13:21:57.809Z,27.90
2018-09-05T13:24:26.310Z,28.50
2018-09-05T13:26:54.887Z,27.80
2018-09-05T13:29:23.089Z,28.20
2018-09-05T13:31:51.370Z,27.90
2018-09-05T13:34:20.054Z,27.50
2018-09-05T13:36:48.254Z,27.10
2018-09-05T13:39:16.481Z,27.30
2018-09-05T13:41:44.684Z,27.80
2018-09-05T13:44:13.064Z,27.80
2018-09-05T13:46:41.410Z,27.80
2018-09-05T13:49:09.625Z,27.30
2018-09-05T13:51:37.974Z,27.40
2018-09-05T13:54:06.296Z,27.10
2018-09-05T13:56:34.646Z,26.10
2018-09-05T13:59:03.309Z,26.20
2018-09-05T14:01:31.554Z,26.00
2018-09-05T14:03:59.779Z,26.40
2018-09-05T14:06:28.590Z,26.10
2018-09-05T14:08:56.946Z,25.80
2018-09-05T14:11:25.149Z,26.70
2018-09-05T14:13:53.353Z,27.10
2018-09-05T14:16:21.571Z,27.10
2018-09-05T14:18:50.290Z,27.40
2018-09-05T14:21:18.501Z,27.40
2018-09-05T14:23:46.699Z,27.40
2018-09-05T14:26:14.909Z,27.90
2018-09-05T14:28:43.167Z,28.00
2018-09-05T14:31:12.246Z,26.90
2018-09-05T14:33:40.478Z,26.20
2018-09-05T14:36:08.686Z,25.40
2018-09-05T14:38:36.937Z,24.60
2018-09-05T14:41:05.313Z,25.20
2018-09-05T14:43:33.760Z,25.60
2018-09-05T14:46:01.999Z,26.80
2018-09-05T14:48:30.250Z,26.70
2018-09-05T14:50:58.572Z,26.10
2018-09-05T14:53:27.014Z,26.20
2018-09-05T14:55:55.358Z,26.70
2018-09-05T14:58:23.747Z,26.90
2018-09-05T15:03:55.013Z,27.00
2018-09-05T15:06:23.289Z,27.60
2018-09-05T15:08:51.469Z,26.80
2018-09-05T15:11:19.814Z,26.90
2018-09-05T15:13:48.090Z,26.60
2018-09-05T15:16:16.320Z,25.60
2018-09-05T15:18:45.169Z,24.90
2018-09-05T15:21:13.552Z,24.50
2018-09-05T15:23:41.953Z,23.40
2018-09-05T15:26:10.150Z,23.50
2018-09-05T15:28:38.391Z,22.70
2018-09-05T15:31:06.611Z,23.10
2018-09-05T15:33:34.946Z,23.00
2018-09-05T15:36:03.162Z,22.80
2018-09-05T15:38:31.422Z,22.90
2018-09-05T15:40:59.852Z,23.00
2018-09-05T15:43:28.177Z,22.40
2018-09-05T15:45:56.451Z,22.40
2018-09-05T15:48:24.682Z,22.80
2018-09-05T15:50:53.009Z,22.60
2018-09-05T15:53:21.200Z,23.10
2018-09-05T15:55:49.511Z,22.10
2018-09-05T15:58:17.750Z,22.60
2018-09-05T16:00:45.973Z,22.80
2018-09-05T16:03:14.245Z,22.50
2018-09-05T16:05:42.554Z,23.10
2018-09-05T16:08:10.871Z,23.60
2018-09-05T16:10:40.143Z,23.70
2018-09-05T16:13:08.377Z,23.20
2018-09-05T16:15:36.993Z,23.50
2018-09-05T16:18:05.203Z,23.10
2018-09-05T16:20:34.487Z,23.40
2018-09-05T16:23:02.769Z,23.00
2018-09-05T16:25:31.026Z,23.70
2018-09-05T16:27:59.241Z,23.60
2018-09-05T16:30:27.642Z,24.60
2018-09-05T16:32:55.993Z,24.40
2018-09-05T16:35:24.249Z,25.00
2018-09-05T16:37:52.560Z,25.00
2018-09-05T16:40:21.326Z,25.00
2018-09-05T16:42:49.948Z,25.10
2018-09-05T16:45:18.425Z,25.10
2018-09-05T16:47:46.837Z,25.40
2018-09-05T16:50:15.180Z,25.90
2018-09-05T16:52:43.610Z,26.40
2018-09-05T16:55:12.846Z,26.50
2018-09-05T16:57:41.163Z,27.00
2018-09-05T17:00:09.711Z,27.20
2018-09-05T17:02:38.273Z,26.40
2018-09-05T17:05:07.420Z,28.20
2018-09-05T17:07:35.889Z,28.10
2018-09-05T17:10:04.140Z,28.70
2018-09-05T17:12:32.309Z,29.40
2018-09-05T17:15:00.498Z,29.70
2018-09-05T17:17:29.146Z,30.40
2018-09-05T17:19:57.386Z,30.70
2018-09-05T17:22:25.610Z,32.10
2018-09-05T17:24:53.789Z,31.90
2018-09-05T17:27:21.976Z,32.00
2018-09-05T17:29:50.318Z,31.70
2018-09-05T17:32:18.608Z,31.80
2018-09-05T17:34:46.798Z,32.90
2018-09-05T17:37:15.027Z,33.10
2018-09-05T17:39:43.400Z,33.70
2018-09-05T17:42:11.719Z,33.30
2018-09-05T17:44:39.906Z,34.20
2018-09-05T17:47:09.818Z,34.40
2018-09-05T17:49:38.059Z,34.60
2018-09-05T17:52:06.370Z,35.00
2018-09-05T17:54:34.617Z,35.10
2018-09-05T17:57:03.178Z,35.50
2018-09-05T17:59:31.381Z,35.80
2018-09-05T18:01:59.717Z,36.20
2018-09-05T18:04:27.954Z,36.40
2018-09-05T18:06:56.346Z,36.50
2018-09-05T18:09:24.535Z,36.60
2018-09-05T18:11:52.743Z,36.90
2018-09-05T18:14:21.223Z,37.10
2018-09-05T18:16:50.830Z,37.50
2018-09-05T18:19:19.245Z,37.60
2018-09-05T18:21:47.492Z,37.50
2018-09-05T18:24:15.942Z,37.90
2018-09-05T18:26:44.182Z,38.20
2018-09-05T18:29:12.677Z,38.40
2018-09-05T18:31:40.893Z,38.70
2018-09-05T18:34:09.139Z,38.60
2018-09-05T18:36:37.417Z,38.50
2018-09-05T18:39:07.148Z,38.70
2018-09-05T18:41:35.813Z,38.90
2018-09-05T18:44:04.147Z,39.00
2018-09-05T18:46:32.353Z,39.70
2018-09-05T18:49:00.592Z,39.40
2018-09-05T18:51:28.921Z,39.40
2018-09-05T18:53:57.242Z,39.60
2018-09-05T18:56:25.507Z,39.70
2018-09-05T18:58:53.776Z,39.60
2018-09-05T19:01:22.113Z,40.10
2018-09-05T19:03:50.754Z,40.40
2018-09-05T19:06:19.890Z,40.60
2018-09-05T19:08:48.166Z,40.80
2018-09-05T19:11:16.561Z,40.60
2018-09-05T19:13:45.314Z,40.30
2018-09-05T19:16:13.703Z,40.50
2018-09-05T19:18:42.268Z,41.10
2018-09-05T19:21:10.577Z,41.40
2018-09-05T19:23:38.926Z,41.50
2018-09-05T19:26:07.329Z,41.50
2018-09-05T19:28:35.537Z,41.70
2018-09-05T19:31:03.757Z,41.90
2018-09-05T19:33:32.010Z,42.30
2018-09-05T19:36:00.250Z,42.40
2018-09-05T19:38:28.538Z,42.90
2018-09-05T19:40:56.959Z,43.20
2018-09-05T19:43:25.182Z,43.50
2018-09-05T19:45:53.402Z,43.90
2018-09-05T19:48:21.625Z,43.90
2018-09-05T19:50:49.893Z,44.30
2018-09-05T19:53:18.170Z,44.00
2018-09-05T19:55:46.430Z,43.90
2018-09-05T19:58:14.721Z,44.20
2018-09-05T20:00:42.997Z,44.30
2018-09-05T20:03:11.512Z,44.30
2018-09-05T20:05:39.880Z,44.40
2018-09-05T20:08:08.543Z,44.60
2018-09-05T20:10:36.740Z,44.30
2018-09-05T20:13:05.618Z,44.30
2018-09-05T20:15:34.470Z,44.20
2018-09-05T20:18:02.711Z,44.20
2018-09-05T20:20:31.152Z,44.30
2018-09-05T20:22:59.366Z,44.50
2018-09-05T20:25:28.856Z,44.60
2018-09-05T20:27:57.309Z,45.00
2018-09-05T20:30:25.530Z,45.10
2018-09-05T20:33:22.603Z,45.00
2018-09-05T20:35:52.048Z,45.10
2018-09-05T20:38:20.483Z,45.10
2018-09-05T20:41:00.279Z,45.30
2018-09-05T20:43:28.724Z,45.20
2018-09-05T20:45:56.961Z,45.20
2018-09-05T20:48:25.198Z,45.20
2018-09-05T20:50:53.440Z,45.10
2018-09-05T20:53:21.814Z,45.00
2018-09-05T20:55:50.441Z,45.40
2018-09-05T20:58:18.713Z,45.50
2018-09-05T21:00:46.941Z,45.70
2018-09-05T21:03:15.146Z,45.80
2018-09-05T21:05:43.580Z,46.00
2018-09-05T21:08:11.795Z,45.90
2018-09-05T21:10:39.961Z,45.90
2018-09-05T21:13:08.364Z,45.80
2018-09-05T21:15:36.664Z,45.90
2018-09-05T21:18:05.099Z,46.00
2018-09-05T21:20:33.177Z,45.70
2018-09-05T21:23:01.374Z,45.80
2018-09-05T21:25:29.630Z,46.00
2018-09-05T21:27:57.953Z,46.20
2018-09-05T21:30:26.152Z,46.00
2018-09-05T21:32:54.354Z,46.30
2018-09-05T21:35:22.642Z,46.30
2018-09-05T21:37:51.084Z,46.50
2018-09-05T21:40:19.442Z,46.70
2018-09-05T21:42:47.646Z,46.60
2018-09-05T21:45:16.229Z,46.50
2018-09-05T21:47:44.417Z,46.50
2018-09-05T21:50:12.744Z,46.50
2018-09-05T21:52:41.097Z,46.40
2018-09-05T21:55:09.368Z,46.50
2018-09-05T21:57:37.563Z,46.60
2018-09-05T22:00:06.998Z,46.70
2018-09-05T22:02:35.605Z,46.60
2018-09-05T22:05:04.138Z,46.50
2018-09-05T22:07:32.335Z,46.60
2018-09-05T22:10:01.129Z,46.70
2018-09-05T22:12:29.448Z,46.90
2018-09-05T22:14:58.037Z,47.00
2018-09-05T22:17:26.214Z,47.20
2018-09-05T22:19:54.460Z,47.10
2018-09-05T22:22:22.654Z,47.40
2018-09-05T22:24:51.057Z,47.40
2018-09-05T22:27:19.834Z,47.40
2018-09-05T22:29:48.052Z,47.80
2018-09-05T22:32:16.383Z,48.30
2018-09-05T22:34:44.579Z,48.80
2018-09-05T22:37:13.843Z,48.40
2018-09-05T22:39:42.490Z,48.30
2018-09-05T22:42:12.963Z,48.10
2018-09-05T22:44:53.741Z,48.10
2018-09-05T22:47:33.249Z,48.30
2018-09-05T22:50:16.106Z,48.00
2018-09-05T22:55:02.059Z,48.20
2018-09-05T22:57:47.172Z,48.10
2018-09-05T23:00:49.115Z,48.90
2018-09-05T23:06:35.014Z,48.80
2018-09-05T23:09:03.805Z,49.30
2018-09-05T23:11:55.610Z,50.00
2018-09-05T23:14:34.102Z,50.10
2018-09-05T23:17:24.727Z,49.80
2018-09-05T23:21:04.749Z,49.60
2018-09-05T23:24:06.322Z,49.40
2018-09-05T23:26:34.526Z,49.80
2018-09-05T23:29:02.797Z,49.80
2018-09-05T23:31:31.017Z,49.70
2018-09-05T23:33:59.379Z,49.60
2018-09-05T23:36:29.675Z,49.70
2018-09-05T23:38:58.671Z,49.80
2018-09-05T23:41:27.746Z,49.40
2018-09-05T23:43:56.188Z,49.40
2018-09-05T23:46:24.601Z,49.40
2018-09-05T23:48:52.866Z,49.50
2018-09-05T23:51:21.420Z,49.20
2018-09-05T23:53:49.606Z,49.10
2018-09-05T23:56:18.023Z,49.10
2018-09-05T23:58:46.298Z,49.30
